Sizerock, KY (41762)

5:32 PM EDT on July 26, 2016 (GMT -0400)
crawford rd | | Change Station

Elev 856 ft 37.11 °N, 83.75 °W | Updated 29 seconds ago

Clear
Clear
84.5 °F
Feels Like 94 °F
N
0.0
Wind Variable Wind from NE
Gusts 0.0 mph

Today
High -- | Low -- °F
--% Chance of Precip.
Yesterday
High -- | Low -- °F
Precip. -- in
Pressure 30.03 in
Visibility -9999.0 miles
Clouds Clear
Heat Index 94 °F
Dew Point 76 °F
Humidity 76%
Rainfall 0.00 in
Snow Depth Not available.
6:34 AM 8:45 PM
Waning Gibbous, 51% visible
METAR KI35 262115Z AUTO 23003KT CLR 33/18 A3003 RMK AO1
Pressure 30.03 in
Visibility -9999.0 miles
Clouds Clear
Heat Index 94 °F
Dew Point 76 °F
Humidity 76%
Rainfall 0.00 in
Snow Depth Not available.
6:34 AM 8:45 PM
Waning Gibbous, 51% visible
METAR KI35 262115Z AUTO 23003KT CLR 33/18 A3003 RMK AO1

10-Day Weather Forecast

Almanac

Astronomy

Jul. 26, 2016 Rise Set
Actual Time
Civil Twilight
Nautical Twilight
Astronomical Twilight
Moon
Length of Visible Light
Length of Day
Tomorrow will be .
, % of the Moon is Illuminated

Today's Extremes

State Highs State Lows

Community

WunderPhotos

Upload Photos

1,927,702 photos uploaded!

WunderBlog® & News

Nearby

Air Quality

  Air Quality AQ Index Pollutant
Not available.

Snow Depth

Station Depth Elevation

Earthquake Activity

City Distance Mag. Time & Date
Minimum magnitude displayed is 2.5.

Coastal Water Temperatures

Place Temperature

Stations

Nearby Weather Stations

Station Location Temp. Windchill Dew Point Humidity Wind Precip. Elev Updated Type
                   

Watches & Warnings

There are currently no watches in effect.